createdAt,value
2019-05-07T00:00:09.307Z,2.10
2019-05-07T00:02:40.108Z,2.10
2019-05-07T00:05:12.043Z,2.10
2019-05-07T00:07:42.734Z,2.10
2019-05-07T00:10:14.095Z,2.20
2019-05-07T00:12:44.968Z,2.20
2019-05-07T00:15:17.463Z,2.40
2019-05-07T00:17:48.156Z,2.60
2019-05-07T00:20:23.286Z,2.60
2019-05-07T00:22:53.895Z,2.60
2019-05-07T00:25:24.364Z,2.50
2019-05-07T00:27:54.700Z,2.50
2019-05-07T00:30:28.224Z,2.40
2019-05-07T00:32:58.824Z,2.40
2019-05-07T00:35:33.503Z,2.30
2019-05-07T00:38:07.979Z,2.20
2019-05-07T00:40:49.124Z,2.30
2019-05-07T00:43:22.781Z,2.40
2019-05-07T00:46:02.128Z,2.40
2019-05-07T00:48:32.819Z,2.60
2019-05-07T00:51:22.699Z,2.60
2019-05-07T00:53:53.234Z,2.70
2019-05-07T00:56:24.975Z,2.70
2019-05-07T00:58:55.323Z,2.70
2019-05-07T01:01:26.149Z,2.60
2019-05-07T01:03:59.696Z,2.70
2019-05-07T01:06:30.343Z,2.90
2019-05-07T01:09:03.020Z,2.90
2019-05-07T01:11:34.700Z,3.00
2019-05-07T01:14:06.447Z,3.20
2019-05-07T01:16:37.244Z,3.30
2019-05-07T01:19:12.384Z,3.40
2019-05-07T01:21:43.310Z,3.40
2019-05-07T01:24:14.956Z,3.40
2019-05-07T01:26:45.599Z,3.40
2019-05-07T01:29:19.722Z,3.50
2019-05-07T01:31:56.077Z,3.40
2019-05-07T01:34:35.190Z,3.40
2019-05-07T01:37:08.279Z,3.40
2019-05-07T01:39:38.803Z,3.50
2019-05-07T01:42:09.431Z,3.60
2019-05-07T01:44:41.865Z,3.50
2019-05-07T01:47:13.245Z,3.60
2019-05-07T01:49:44.699Z,3.60
2019-05-07T01:52:15.275Z,3.70
2019-05-07T01:54:47.470Z,3.90
2019-05-07T01:57:17.692Z,3.90
2019-05-07T01:59:48.132Z,3.90
2019-05-07T02:05:19.007Z,3.70
2019-05-07T02:07:54.500Z,3.60
2019-05-07T02:10:33.484Z,3.50
2019-05-07T02:13:03.824Z,3.60
2019-05-07T02:15:36.451Z,3.50
2019-05-07T02:18:07.843Z,3.50
2019-05-07T02:20:38.432Z,3.60
2019-05-07T02:23:09.023Z,3.60
2019-05-07T02:25:41.832Z,3.50
2019-05-07T02:28:12.829Z,3.50
2019-05-07T02:30:44.390Z,3.50
2019-05-07T02:33:16.254Z,3.50
2019-05-07T02:35:46.898Z,3.50
2019-05-07T02:38:36.323Z,3.40
2019-05-07T02:41:14.203Z,3.40
2019-05-07T02:43:43.805Z,3.30
2019-05-07T02:46:36.013Z,3.30
2019-05-07T02:49:29.211Z,3.20
2019-05-07T02:52:05.440Z,3.20
2019-05-07T02:55:03.759Z,3.20
2019-05-07T02:57:33.902Z,3.20
2019-05-07T03:00:05.607Z,3.20
2019-05-07T03:02:37.335Z,3.20
2019-05-07T03:05:07.975Z,3.20
2019-05-07T03:07:38.715Z,3.10
2019-05-07T03:10:09.137Z,3.20
2019-05-07T03:12:42.733Z,3.30
2019-05-07T03:15:13.208Z,3.30
2019-05-07T03:17:44.789Z,3.20
2019-05-07T03:20:23.186Z,3.30
2019-05-07T03:22:54.354Z,3.40
2019-05-07T03:25:34.732Z,3.40
2019-05-07T03:28:05.240Z,3.50
2019-05-07T03:30:56.175Z,3.50
2019-05-07T03:33:47.290Z,3.40
2019-05-07T03:36:17.247Z,3.40
2019-05-07T03:38:48.237Z,3.30
2019-05-07T03:41:22.858Z,3.30
2019-05-07T03:43:53.594Z,3.30
2019-05-07T03:46:25.051Z,3.30
2019-05-07T03:48:55.557Z,3.30
2019-05-07T03:51:26.296Z,3.30
2019-05-07T03:53:56.938Z,3.30
2019-05-07T03:56:27.544Z,3.30
2019-05-07T03:58:59.205Z,3.30
2019-05-07T04:01:29.623Z,3.30
2019-05-07T04:04:03.584Z,3.40
2019-05-07T04:06:33.322Z,3.40
2019-05-07T04:09:04.006Z,3.30
2019-05-07T04:11:34.786Z,3.20
2019-05-07T04:14:05.256Z,3.20
2019-05-07T04:16:37.513Z,3.00
2019-05-07T04:19:08.245Z,3.00
2019-05-07T04:21:39.183Z,2.90
2019-05-07T04:24:27.224Z,3.00
2019-05-07T04:27:06.528Z,3.10
2019-05-07T04:29:37.244Z,3.10
2019-05-07T04:32:08.507Z,3.10
2019-05-07T04:34:52.986Z,3.20
2019-05-07T04:37:25.926Z,3.30
2019-05-07T04:39:56.564Z,3.40
2019-05-07T04:42:29.865Z,3.50
2019-05-07T04:45:04.268Z,3.60
2019-05-07T04:47:42.615Z,3.70
2019-05-07T04:50:06.621Z,3.80
2019-05-07T04:52:37.577Z,3.90
2019-05-07T04:55:08.458Z,4.00
2019-05-07T04:57:39.048Z,4.10
2019-05-07T05:00:13.456Z,4.30
2019-05-07T05:03:04.457Z,4.40
2019-05-07T05:05:35.055Z,4.50
2019-05-07T05:08:05.605Z,4.60
2019-05-07T05:10:36.518Z,4.70
2019-05-07T05:13:07.216Z,4.80
2019-05-07T05:15:37.907Z,4.90
2019-05-07T05:18:08.575Z,5.00
2019-05-07T05:20:48.628Z,5.10
2019-05-07T05:23:28.180Z,5.20
2019-05-07T05:25:58.740Z,5.30
2019-05-07T05:28:29.244Z,5.40
2019-05-07T05:31:03.310Z,5.50
2019-05-07T05:33:33.294Z,5.70
2019-05-07T05:36:04.246Z,5.90
2019-05-07T05:38:35.762Z,6.00
2019-05-07T05:41:06.404Z,6.20
2019-05-07T05:43:55.313Z,6.30
2019-05-07T05:46:27.106Z,6.40
2019-05-07T05:48:57.669Z,6.50
2019-05-07T05:51:43.493Z,6.50
2019-05-07T05:54:37.636Z,6.60
2019-05-07T05:57:26.941Z,6.60
2019-05-07T06:00:22.408Z,6.70
2019-05-07T06:03:11.978Z,6.80
2019-05-07T06:06:13.409Z,7.10
2019-05-07T06:09:01.801Z,7.10
2019-05-07T06:11:48.949Z,7.20
2019-05-07T06:14:25.709Z,7.30
2019-05-07T06:17:12.970Z,7.20
2019-05-07T06:20:02.767Z,7.30
2019-05-07T06:22:57.264Z,7.30
2019-05-07T06:25:28.012Z,7.40
2019-05-07T06:27:58.516Z,7.50
2019-05-07T06:30:29.103Z,7.60
2019-05-07T06:32:59.718Z,7.60
2019-05-07T06:37:59.240Z,7.70
2019-05-07T06:41:03.591Z,7.80
2019-05-07T06:43:55.784Z,7.90
2019-05-07T06:46:26.427Z,8.00
2019-05-07T06:48:56.835Z,8.10
2019-05-07T06:51:27.481Z,8.10
2019-05-07T06:53:57.867Z,8.20
2019-05-07T06:56:28.359Z,8.20
2019-05-07T06:59:07.183Z,8.20
2019-05-07T07:02:05.546Z,8.20
2019-05-07T07:04:44.464Z,8.30
2019-05-07T07:07:37.318Z,8.30
2019-05-07T07:10:35.382Z,8.30
2019-05-07T07:13:05.812Z,8.30
2019-05-07T07:15:36.528Z,8.50
2019-05-07T07:18:07.297Z,8.60
2019-05-07T07:20:38.321Z,8.50
2019-05-07T07:23:11.796Z,8.50
2019-05-07T07:25:43.055Z,8.60
2019-05-07T07:28:13.724Z,8.70
2019-05-07T07:31:02.406Z,8.70
2019-05-07T07:33:35.639Z,8.80
2019-05-07T07:36:06.404Z,8.80
2019-05-07T07:38:37.027Z,8.80
2019-05-07T07:41:18.261Z,8.90
2019-05-07T07:43:52.588Z,8.80
2019-05-07T07:46:23.253Z,8.80
2019-05-07T07:49:06.589Z,9.00
2019-05-07T07:51:37.927Z,9.10
2019-05-07T07:53:58.527Z,9.10
2019-05-07T07:56:52.280Z,9.10
2019-05-07T07:59:34.745Z,9.30
2019-05-07T08:02:16.190Z,9.40
2019-05-07T08:04:46.893Z,9.80
2019-05-07T08:07:17.724Z,10.10
2019-05-07T08:09:48.562Z,10.40
2019-05-07T08:12:19.161Z,10.10
2019-05-07T08:14:51.768Z,9.60
2019-05-07T08:17:22.543Z,9.20
2019-05-07T08:19:53.299Z,9.20
2019-05-07T08:22:27.092Z,9.40
2019-05-07T08:24:58.675Z,9.90
2019-05-07T08:27:29.484Z,9.90
2019-05-07T08:30:00.016Z,10.20
2019-05-07T08:32:47.672Z,10.10
2019-05-07T08:35:37.043Z,10.10
2019-05-07T08:38:08.675Z,10.00
2019-05-07T08:40:44.487Z,10.60
2019-05-07T08:46:18.655Z,10.70
2019-05-07T08:48:50.270Z,10.30
2019-05-07T08:51:26.441Z,10.20
2019-05-07T08:54:06.084Z,10.00
2019-05-07T08:56:42.618Z,10.20
2019-05-07T08:59:13.219Z,10.20
2019-05-07T09:01:43.966Z,10.10
2019-05-07T09:04:14.592Z,10.10
2019-05-07T09:06:45.269Z,10.20
2019-05-07T09:09:15.879Z,10.00
2019-05-07T09:11:46.662Z,9.60
2019-05-07T09:19:25.617Z,9.00
2019-05-07T09:24:29.624Z,9.10
2019-05-07T09:27:22.293Z,9.30
2019-05-07T09:30:29.480Z,9.20
2019-05-07T09:33:14.983Z,9.10
2019-05-07T09:35:52.870Z,9.60
2019-05-07T09:38:23.615Z,9.90
2019-05-07T09:40:57.989Z,10.10
2019-05-07T09:43:35.429Z,10.20
2019-05-07T09:46:06.343Z,10.40
2019-05-07T09:48:37.087Z,9.90
2019-05-07T09:51:07.944Z,10.20
2019-05-07T09:53:42.534Z,10.30
2019-05-07T09:56:13.148Z,10.00
2019-05-07T10:01:19.763Z,9.60
2019-05-07T10:03:51.852Z,9.80
2019-05-07T10:06:28.249Z,9.80
2019-05-07T10:09:06.139Z,9.70
2019-05-07T10:11:52.430Z,9.50
2019-05-07T10:14:27.215Z,9.70
2019-05-07T10:17:15.964Z,9.80
2019-05-07T10:19:52.363Z,9.90
2019-05-07T10:22:23.120Z,10.10
2019-05-07T10:24:53.623Z,10.10
2019-05-07T10:27:26.251Z,10.00
2019-05-07T10:29:56.576Z,9.90
2019-05-07T10:32:27.443Z,10.00
2019-05-07T10:34:57.905Z,9.90
2019-05-07T10:37:28.764Z,9.80
2019-05-07T10:39:59.155Z,9.90
2019-05-07T10:42:29.551Z,10.10
2019-05-07T10:45:13.048Z,9.90
2019-05-07T10:47:53.543Z,9.40
2019-05-07T10:50:35.606Z,9.40
2019-05-07T10:58:11.595Z,10.00
2019-05-07T11:00:42.204Z,10.30
2019-05-07T11:03:14.405Z,10.30
2019-05-07T11:05:44.731Z,10.20
2019-05-07T11:08:15.289Z,10.30
2019-05-07T11:10:45.819Z,10.30
2019-05-07T11:13:16.679Z,10.00
2019-05-07T11:15:49.203Z,10.20
2019-05-07T11:18:28.145Z,9.90
2019-05-07T11:20:58.836Z,10.10
2019-05-07T11:23:32.735Z,10.40
2019-05-07T11:26:03.413Z,10.80
2019-05-07T11:28:34.311Z,10.80
2019-05-07T11:31:04.995Z,11.00
2019-05-07T11:33:35.968Z,10.80
2019-05-07T11:36:06.485Z,10.00
2019-05-07T11:38:36.984Z,10.30
2019-05-07T11:41:07.548Z,10.50
2019-05-07T11:44:01.959Z,10.50
2019-05-07T11:46:52.573Z,10.60
2019-05-07T11:49:28.615Z,10.80
2019-05-07T11:52:04.189Z,11.10
2019-05-07T11:57:17.899Z,11.20
2019-05-07T11:59:48.383Z,11.40
2019-05-07T12:05:04.808Z,11.20
2019-05-07T12:07:35.427Z,11.50
2019-05-07T12:10:06.411Z,11.40
2019-05-07T12:12:47.916Z,11.60
2019-05-07T12:15:18.685Z,11.80
2019-05-07T12:17:53.008Z,11.70
2019-05-07T12:20:23.851Z,11.60
2019-05-07T12:22:56.483Z,11.90
2019-05-07T12:25:34.771Z,12.70
2019-05-07T12:28:18.101Z,14.40
2019-05-07T12:31:12.440Z,15.60
2019-05-07T12:34:16.811Z,16.80
2019-05-07T12:36:47.658Z,16.90
2019-05-07T12:39:31.704Z,17.00
2019-05-07T12:41:57.957Z,18.10
2019-05-07T12:44:33.182Z,18.50
2019-05-07T12:47:05.873Z,17.90
2019-05-07T12:49:37.825Z,17.80
2019-05-07T12:55:47.105Z,17.90
2019-05-07T12:58:22.976Z,19.20
2019-05-07T13:01:02.645Z,20.00
2019-05-07T13:03:36.755Z,20.20
2019-05-07T13:06:11.678Z,20.00
2019-05-07T13:08:42.763Z,20.10
2019-05-07T13:11:17.180Z,19.20
2019-05-07T13:13:54.835Z,18.20
2019-05-07T13:16:33.900Z,17.10
2019-05-07T13:19:10.524Z,16.50
2019-05-07T13:22:24.872Z,17.30
2019-05-07T13:25:02.241Z,17.10
2019-05-07T13:27:34.325Z,16.30
2019-05-07T13:30:06.363Z,15.90
2019-05-07T13:32:37.306Z,14.80
2019-05-07T13:35:15.662Z,13.90
2019-05-07T13:37:51.817Z,14.50
2019-05-07T13:41:12.590Z,14.90
2019-05-07T13:44:12.447Z,15.40
2019-05-07T13:46:45.365Z,16.30
2019-05-07T13:49:32.353Z,16.60
2019-05-07T13:52:03.888Z,15.80
2019-05-07T13:54:44.111Z,15.00
2019-05-07T13:57:22.712Z,16.60
2019-05-07T13:59:59.030Z,16.20
2019-05-07T14:02:39.235Z,16.60
2019-05-07T14:05:14.063Z,16.70
2019-05-07T14:07:43.715Z,15.80
2019-05-07T14:10:23.853Z,16.00
2019-05-07T14:13:07.797Z,16.30
2019-05-07T14:15:36.521Z,16.50
2019-05-07T14:18:07.498Z,16.90
2019-05-07T14:20:38.255Z,16.40
2019-05-07T14:23:08.773Z,16.10
2019-05-07T14:25:39.299Z,16.00
2019-05-07T14:28:11.557Z,16.10
2019-05-07T14:30:47.351Z,16.30
2019-05-07T14:33:26.739Z,16.50
2019-05-07T14:36:11.968Z,16.50
2019-05-07T14:38:52.052Z,16.90
2019-05-07T14:41:25.699Z,16.00
2019-05-07T14:44:19.743Z,16.80
2019-05-07T14:46:55.949Z,16.30
2019-05-07T14:49:31.647Z,16.00
2019-05-07T14:52:02.765Z,16.70
2019-05-07T14:54:33.246Z,15.80
2019-05-07T14:57:05.771Z,14.50
2019-05-07T14:59:38.379Z,13.40
2019-05-07T15:02:11.903Z,13.60
2019-05-07T15:04:42.060Z,14.50
2019-05-07T15:07:12.684Z,14.80
2019-05-07T15:09:44.663Z,13.80
2019-05-07T15:12:19.208Z,13.50
2019-05-07T15:15:02.238Z,13.20
2019-05-07T15:17:46.468Z,13.10
2019-05-07T15:20:17.591Z,12.80
2019-05-07T15:23:02.558Z,12.70
2019-05-07T15:25:35.456Z,12.70
2019-05-07T15:28:12.236Z,13.20
2019-05-07T15:33:25.601Z,13.50
2019-05-07T15:35:56.191Z,13.20
2019-05-07T15:38:27.077Z,13.10
2019-05-07T15:40:57.836Z,12.70
2019-05-07T15:43:28.341Z,12.50
2019-05-07T15:45:59.046Z,12.00
2019-05-07T15:48:30.071Z,12.20
2019-05-07T15:51:00.528Z,11.90
2019-05-07T15:53:39.243Z,11.30
2019-05-07T15:56:09.676Z,11.40
2019-05-07T15:58:42.430Z,11.30
2019-05-07T16:01:12.929Z,10.80
2019-05-07T16:03:44.368Z,11.00
2019-05-07T16:06:21.466Z,11.10
2019-05-07T16:08:54.159Z,10.90
2019-05-07T16:11:24.524Z,10.80
2019-05-07T16:14:00.172Z,10.20
2019-05-07T16:16:30.662Z,10.40
2019-05-07T16:19:08.209Z,10.50
2019-05-07T16:21:38.872Z,10.60
2019-05-07T16:24:09.527Z,10.60
2019-05-07T16:26:41.731Z,10.30
2019-05-07T16:29:13.345Z,10.40
2019-05-07T16:31:48.556Z,10.50
2019-05-07T16:34:18.107Z,10.50
2019-05-07T16:36:48.844Z,10.30
2019-05-07T16:39:19.564Z,10.20
2019-05-07T16:41:49.867Z,10.00
2019-05-07T16:44:22.413Z,10.00
2019-05-07T16:46:53.556Z,10.10
2019-05-07T16:49:24.267Z,10.10
2019-05-07T16:51:54.735Z,10.10
2019-05-07T16:54:25.239Z,9.90
2019-05-07T16:57:13.688Z,9.80
2019-05-07T16:59:44.474Z,9.70
2019-05-07T17:02:20.300Z,9.80
2019-05-07T17:05:07.452Z,9.70
2019-05-07T17:10:19.399Z,9.60
2019-05-07T17:12:55.120Z,9.60
2019-05-07T17:15:30.604Z,9.50
2019-05-07T17:18:04.647Z,9.30
2019-05-07T17:20:35.399Z,9.20
2019-05-07T17:23:09.627Z,9.10
2019-05-07T17:25:40.115Z,8.90
2019-05-07T17:28:16.383Z,8.80
2019-05-07T17:30:53.019Z,8.80
2019-05-07T17:38:37.857Z,8.70
2019-05-07T17:41:13.020Z,8.70
2019-05-07T17:54:19.254Z,8.40
2019-05-07T17:56:49.783Z,8.40
2019-05-07T18:02:18.611Z,8.30
2019-05-07T18:04:52.215Z,8.30
2019-05-07T18:07:21.257Z,8.40
2019-05-07T18:09:52.632Z,8.20
2019-05-07T18:12:23.307Z,8.20
2019-05-07T18:14:53.651Z,8.20
2019-05-07T18:18:00.886Z,8.20
2019-05-07T18:20:32.796Z,8.10
2019-05-07T18:23:03.484Z,8.00
2019-05-07T18:25:34.004Z,7.90
2019-05-07T18:28:04.598Z,7.90
2019-05-07T18:30:35.047Z,7.80
2019-05-07T18:33:34.042Z,7.60
2019-05-07T18:36:04.414Z,7.60
2019-05-07T18:41:05.897Z,7.50
2019-05-07T18:43:36.413Z,7.40
2019-05-07T18:46:08.696Z,7.40
2019-05-07T18:48:39.502Z,7.30
2019-05-07T18:51:12.068Z,7.20
2019-05-07T18:53:42.612Z,7.20
2019-05-07T18:56:13.349Z,7.10
2019-05-07T18:58:43.699Z,7.10
2019-05-07T19:01:15.384Z,7.00
2019-05-07T19:03:45.821Z,7.00
2019-05-07T19:06:16.296Z,6.90
2019-05-07T19:08:47.487Z,6.80
2019-05-07T19:11:18.099Z,6.80
2019-05-07T19:13:48.582Z,6.80
2019-05-07T19:16:19.095Z,6.90
2019-05-07T19:18:49.628Z,6.90
2019-05-07T19:21:22.227Z,7.00
2019-05-07T19:23:52.979Z,6.80
2019-05-07T19:26:23.509Z,6.80
2019-05-07T19:28:53.925Z,6.80
2019-05-07T19:31:24.323Z,6.80
2019-05-07T19:33:54.803Z,6.80
2019-05-07T19:36:25.439Z,6.70
2019-05-07T19:38:56.786Z,6.70
2019-05-07T19:41:27.279Z,6.50
2019-05-07T19:43:57.734Z,6.50
2019-05-07T19:46:28.387Z,6.60
2019-05-07T19:48:58.806Z,6.70
2019-05-07T19:51:32.046Z,6.70
2019-05-07T19:54:02.499Z,6.70
2019-05-07T19:56:32.963Z,6.70
2019-05-07T19:59:03.439Z,6.70
2019-05-07T20:01:48.828Z,6.70
2019-05-07T20:04:19.199Z,6.80
2019-05-07T20:06:49.531Z,6.80
2019-05-07T20:09:27.583Z,6.80
2019-05-07T20:12:08.012Z,6.80
2019-05-07T20:14:37.406Z,6.70
2019-05-07T20:17:07.823Z,6.80
2019-05-07T20:19:38.422Z,6.70
2019-05-07T20:22:08.699Z,6.70
2019-05-07T20:24:39.211Z,6.70
2019-05-07T20:27:09.722Z,6.60
2019-05-07T20:29:42.657Z,6.60
2019-05-07T20:32:12.439Z,6.60
2019-05-07T20:34:46.019Z,6.60
2019-05-07T20:37:16.375Z,6.60
2019-05-07T20:39:47.279Z,6.60
2019-05-07T20:42:17.674Z,6.60
2019-05-07T20:44:48.307Z,6.50
2019-05-07T20:47:18.741Z,6.50
2019-05-07T20:49:49.039Z,6.50
2019-05-07T20:52:19.519Z,6.60
2019-05-07T20:55:04.647Z,6.60
2019-05-07T20:57:42.646Z,6.70
2019-05-07T21:00:22.741Z,6.70
2019-05-07T21:03:12.543Z,6.70
2019-05-07T21:05:43.109Z,6.80
2019-05-07T21:08:14.492Z,6.80
2019-05-07T21:10:45.247Z,6.80
2019-05-07T21:13:27.621Z,6.70
2019-05-07T21:15:48.995Z,6.70
2019-05-07T21:18:22.944Z,6.60
2019-05-07T21:23:23.091Z,6.60
2019-05-07T21:25:56.746Z,6.60
2019-05-07T21:28:27.431Z,6.50
2019-05-07T21:30:58.741Z,6.40
2019-05-07T21:33:29.340Z,6.30
2019-05-07T21:35:59.735Z,6.20
2019-05-07T21:38:32.743Z,6.20
2019-05-07T21:41:02.327Z,6.20
2019-05-07T21:43:33.063Z,6.30
2019-05-07T21:46:03.395Z,6.20
2019-05-07T21:48:33.828Z,6.30
2019-05-07T21:51:04.115Z,6.40
2019-05-07T21:53:40.084Z,6.50
2019-05-07T21:56:26.155Z,6.50
2019-05-07T21:59:03.226Z,6.50
2019-05-07T22:01:43.585Z,6.50
2019-05-07T22:04:13.605Z,6.60
2019-05-07T22:06:45.545Z,6.60
2019-05-07T22:09:16.660Z,6.60
2019-05-07T22:11:53.778Z,6.60
2019-05-07T22:14:25.204Z,6.70
2019-05-07T22:16:55.619Z,6.70
2019-05-07T22:19:26.135Z,6.60
2019-05-07T22:21:59.439Z,6.60
2019-05-07T22:24:30.154Z,6.50
2019-05-07T22:27:01.714Z,6.50
2019-05-07T22:29:33.766Z,6.50
2019-05-07T22:32:30.184Z,6.30
2019-05-07T22:35:12.483Z,6.20
2019-05-07T22:37:44.643Z,6.20
2019-05-07T22:40:16.659Z,6.10
2019-05-07T22:42:48.771Z,6.00
2019-05-07T22:45:19.843Z,6.00
2019-05-07T22:47:52.556Z,6.00
2019-05-07T22:50:23.344Z,6.00
2019-05-07T22:52:54.399Z,6.10
2019-05-07T22:58:04.246Z,6.00
2019-05-07T23:00:42.706Z,6.00
2019-05-07T23:03:14.252Z,6.00
2019-05-07T23:05:44.982Z,5.90
2019-05-07T23:08:16.750Z,5.90
2019-05-07T23:10:47.177Z,5.90
2019-05-07T23:13:17.916Z,5.90
2019-05-07T23:15:49.362Z,5.90
2019-05-07T23:18:19.754Z,5.90
2019-05-07T23:20:50.031Z,5.90
2019-05-07T23:23:22.144Z,5.80
2019-05-07T23:25:53.855Z,5.80
2019-05-07T23:28:24.327Z,5.70
2019-05-07T23:30:56.515Z,5.70
2019-05-07T23:33:27.924Z,5.60
2019-05-07T23:35:58.371Z,5.60
2019-05-07T23:38:28.957Z,5.50
2019-05-07T23:41:24.317Z,5.50
2019-05-07T23:44:12.484Z,5.50
2019-05-07T23:46:44.770Z,5.50
2019-05-07T23:49:15.349Z,5.50
2019-05-07T23:51:45.705Z,5.50
2019-05-07T23:54:16.322Z,5.40
2019-05-07T23:56:46.826Z,5.50
2019-05-07T23:59:17.488Z,5.40
